createdAt,value
2023-03-03T00:00:58.041Z,99150.41
2023-03-03T00:03:26.991Z,99170.78
2023-03-03T00:05:55.227Z,99168.31
2023-03-03T00:08:23.182Z,99177.63
2023-03-03T00:10:50.663Z,99177.66
2023-03-03T00:13:23.608Z,99180.19
2023-03-03T00:15:51.674Z,99169.28
2023-03-03T00:18:37.519Z,99179.38
2023-03-03T00:21:29.089Z,99180.19
2023-03-03T00:24:31.797Z,99178.63
2023-03-03T00:27:17.274Z,99182.13
2023-03-03T00:29:51.155Z,99186.34
2023-03-03T00:32:31.663Z,99183.91
2023-03-03T00:35:23.781Z,99178.72
2023-03-03T00:38:00.134Z,99169.41
2023-03-03T00:40:36.191Z,99184.88
2023-03-03T00:43:20.677Z,99164.56
2023-03-03T00:45:58.558Z,99180.59
2023-03-03T00:48:35.787Z,99176.38
2023-03-03T00:51:19.369Z,99178.19
2023-03-03T00:53:46.274Z,99180.72
2023-03-03T00:56:13.142Z,99165.47
2023-03-03T00:58:39.989Z,99180.84
2023-03-03T01:01:06.872Z,99171.66
2023-03-03T01:03:33.736Z,99170.78
2023-03-03T01:06:00.570Z,99168.28
2023-03-03T01:08:27.495Z,99171.72
2023-03-03T01:11:07.509Z,99183.50
2023-03-03T01:13:37.903Z,99175.25
2023-03-03T01:16:06.140Z,99180.38
2023-03-03T01:18:33.298Z,99167.69
2023-03-03T01:21:01.973Z,99164.53
2023-03-03T01:23:29.175Z,99148.56
2023-03-03T01:25:56.047Z,99176.63
2023-03-03T01:28:22.969Z,99166.47
2023-03-03T01:30:50.833Z,99179.19
2023-03-03T01:33:18.308Z,99168.38
2023-03-03T01:35:47.462Z,99155.78
2023-03-03T01:38:15.714Z,99173.63
2023-03-03T01:40:42.585Z,99168.66
2023-03-03T01:43:14.707Z,99180.47
2023-03-03T01:45:47.223Z,99180.47
2023-03-03T01:48:34.877Z,99167.16
2023-03-03T01:51:06.311Z,99181.72
2023-03-03T01:53:50.977Z,99181.88
2023-03-03T01:56:17.876Z,99161.44
2023-03-03T01:58:51.567Z,99167.38
2023-03-03T02:01:23.136Z,99152.97
2023-03-03T02:03:50.874Z,99157.97
2023-03-03T02:06:24.345Z,99157.97
2023-03-03T02:08:59.449Z,99168.06
2023-03-03T02:11:28.710Z,99149.59
2023-03-03T02:13:55.558Z,99163.16
2023-03-03T02:16:22.587Z,99161.50
2023-03-03T02:18:49.599Z,99122.53
2023-03-03T02:21:26.519Z,99131.88
2023-03-03T02:24:29.017Z,99142.97
2023-03-03T02:26:56.234Z,99151.47
2023-03-03T02:29:23.123Z,99141.34
2023-03-03T02:31:50.180Z,99132.81
2023-03-03T02:34:17.741Z,99144.72
2023-03-03T02:36:44.636Z,99140.56
2023-03-03T02:39:21.941Z,99149.09
2023-03-03T02:41:55.586Z,99136.34
2023-03-03T02:44:26.857Z,99142.25
2023-03-03T02:46:55.909Z,99111.88
2023-03-03T02:49:26.586Z,99142.25
2023-03-03T02:51:54.386Z,99138.16
2023-03-03T02:54:24.719Z,99115.31
2023-03-03T02:56:51.732Z,99144.81
2023-03-03T02:59:18.857Z,99139.06
2023-03-03T03:01:47.034Z,99156.81
2023-03-03T03:04:16.996Z,99155.97
2023-03-03T03:06:44.822Z,99144.22
2023-03-03T03:09:13.584Z,99152.56
2023-03-03T03:11:41.486Z,99131.44
2023-03-03T03:14:10.289Z,99122.13
2023-03-03T03:16:37.520Z,99163.53
2023-03-03T03:19:05.030Z,99161.84
2023-03-03T03:21:32.761Z,99157.59
2023-03-03T03:24:00.176Z,99151.66
2023-03-03T03:26:27.340Z,99154.97
2023-03-03T03:28:54.651Z,99154.06
2023-03-03T03:31:21.989Z,99125.38
2023-03-03T03:33:49.168Z,99149.72
2023-03-03T03:36:16.774Z,99157.53
2023-03-03T03:38:44.070Z,99166.72
2023-03-03T03:41:12.107Z,99158.22
2023-03-03T03:43:38.983Z,99162.47
2023-03-03T03:46:06.260Z,99157.41
2023-03-03T03:48:33.278Z,99166.72
2023-03-03T03:51:00.146Z,99163.25
2023-03-03T03:53:27.339Z,99154.00
2023-03-03T03:55:54.164Z,99160.72
2023-03-03T03:58:21.187Z,99144.75
2023-03-03T04:00:48.755Z,99166.72
2023-03-03T04:03:15.746Z,99167.47
2023-03-03T04:05:43.434Z,99166.56
2023-03-03T04:08:10.972Z,99156.38
2023-03-03T04:10:38.090Z,99156.25
2023-03-03T04:13:05.098Z,99163.03
2023-03-03T04:15:31.980Z,99172.50
2023-03-03T04:17:58.849Z,99154.72
2023-03-03T04:20:25.663Z,99159.88
2023-03-03T04:22:52.627Z,99170.72
2023-03-03T04:25:19.558Z,99165.69
2023-03-03T04:27:46.624Z,99158.06
2023-03-03T04:30:15.733Z,99174.97
2023-03-03T04:32:42.873Z,99178.38
2023-03-03T04:35:11.851Z,99178.41
2023-03-03T04:37:39.040Z,99174.94
2023-03-03T04:40:07.935Z,99174.94
2023-03-03T04:42:35.548Z,99148.03
2023-03-03T04:45:03.982Z,99170.63
2023-03-03T04:47:32.444Z,99184.28
2023-03-03T04:49:59.390Z,99180.00
2023-03-03T04:52:26.199Z,99185.97
2023-03-03T04:54:53.033Z,99173.25
2023-03-03T04:57:19.829Z,99169.00
2023-03-03T04:59:46.712Z,99154.59
2023-03-03T05:02:13.800Z,99188.34
2023-03-03T05:04:40.886Z,99183.38
2023-03-03T05:07:08.074Z,99190.22
2023-03-03T05:09:35.511Z,99197.75
2023-03-03T05:12:02.461Z,99161.38
2023-03-03T05:14:29.342Z,99196.78
2023-03-03T05:16:56.176Z,99201.94
2023-03-03T05:19:24.178Z,99186.66
2023-03-03T05:21:51.004Z,99185.03
2023-03-03T05:24:18.229Z,99195.03
2023-03-03T05:26:45.052Z,99194.75
2023-03-03T05:29:11.851Z,99195.56
2023-03-03T05:31:38.688Z,99197.84
2023-03-03T05:34:05.572Z,99179.06
2023-03-03T05:36:32.419Z,99193.53
2023-03-03T05:38:59.249Z,99198.41
2023-03-03T05:41:26.124Z,99196.72
2023-03-03T05:43:52.940Z,99196.72
2023-03-03T05:46:19.781Z,99196.66
2023-03-03T05:48:46.739Z,99212.78
2023-03-03T05:51:13.530Z,99191.75
2023-03-03T05:53:40.365Z,99211.00
2023-03-03T05:56:07.439Z,99225.56
2023-03-03T05:58:34.391Z,99224.66
2023-03-03T06:01:01.174Z,99222.03
2023-03-03T06:03:27.996Z,99217.81
2023-03-03T06:05:54.885Z,99223.75
2023-03-03T06:08:21.723Z,99226.28
2023-03-03T06:10:48.588Z,99216.16
2023-03-03T06:13:15.392Z,99222.84
2023-03-03T06:15:42.220Z,99212.66
2023-03-03T06:18:09.358Z,99220.31
2023-03-03T06:20:36.643Z,99230.47
2023-03-03T06:23:03.701Z,99233.81
2023-03-03T06:25:30.524Z,99230.53
2023-03-03T06:27:58.017Z,99238.09
2023-03-03T06:30:26.933Z,99244.03
2023-03-03T06:32:54.459Z,99240.53
2023-03-03T06:35:21.290Z,99237.19
2023-03-03T06:37:50.771Z,99249.00
2023-03-03T06:40:17.895Z,99240.56
2023-03-03T06:42:44.928Z,99259.22
2023-03-03T06:45:12.245Z,99235.44
2023-03-03T06:47:39.035Z,99256.63
2023-03-03T06:50:06.967Z,99259.97
2023-03-03T06:52:33.918Z,99240.53
2023-03-03T06:55:11.516Z,99247.31
2023-03-03T06:57:38.456Z,99256.63
2023-03-03T07:00:28.531Z,99265.09
2023-03-03T07:03:11.762Z,99277.00
2023-03-03T07:05:38.602Z,99268.88
2023-03-03T07:08:19.492Z,99268.84
2023-03-03T07:10:47.682Z,99274.69
2023-03-03T07:13:29.663Z,99272.16
2023-03-03T07:16:00.191Z,99278.81
2023-03-03T07:18:55.033Z,99279.53
2023-03-03T07:21:26.351Z,99277.06
2023-03-03T07:23:54.162Z,99276.97
2023-03-03T07:26:30.742Z,99297.34
2023-03-03T07:29:21.466Z,99290.47
2023-03-03T07:31:50.089Z,99283.75
2023-03-03T07:34:40.913Z,99289.53
2023-03-03T07:37:34.796Z,99284.84
2023-03-03T07:40:21.440Z,99292.25
2023-03-03T07:42:48.361Z,99284.53
2023-03-03T07:45:29.989Z,99291.16
2023-03-03T07:48:16.034Z,99284.38
2023-03-03T07:50:42.830Z,99271.63
2023-03-03T07:53:26.693Z,99297.81
2023-03-03T07:55:53.962Z,99294.28
2023-03-03T07:58:23.484Z,99279.00
2023-03-03T08:01:25.306Z,99295.88
2023-03-03T08:03:52.520Z,99292.53
2023-03-03T08:06:47.870Z,99297.63
2023-03-03T08:09:17.579Z,99297.50
2023-03-03T08:11:52.051Z,99300.91
2023-03-03T08:14:30.026Z,99303.69
2023-03-03T08:17:00.591Z,99311.44
2023-03-03T08:19:31.901Z,99282.59
2023-03-03T08:22:20.398Z,99294.19
2023-03-03T08:24:47.269Z,99304.47
2023-03-03T08:27:14.085Z,99288.25
2023-03-03T08:29:40.961Z,99307.84
2023-03-03T08:32:07.927Z,99270.69
2023-03-03T08:34:34.825Z,99287.56
2023-03-03T08:37:01.685Z,99294.50
2023-03-03T08:39:28.486Z,99275.97
2023-03-03T08:41:55.374Z,99300.34
2023-03-03T08:44:22.251Z,99304.63
2023-03-03T08:46:49.159Z,99308.13
2023-03-03T08:49:16.082Z,99292.78
2023-03-03T08:51:43.034Z,99303.84
2023-03-03T08:54:09.852Z,99308.75
2023-03-03T08:56:36.824Z,99304.59
2023-03-03T08:59:03.963Z,99285.75
2023-03-03T09:01:32.846Z,99286.56
2023-03-03T09:04:00.140Z,99309.28
2023-03-03T09:06:27.024Z,99307.72
2023-03-03T09:08:54.936Z,99321.28
2023-03-03T09:11:27.437Z,99321.22
2023-03-03T09:14:18.069Z,99328.00
2023-03-03T09:16:54.472Z,99314.41
2023-03-03T09:19:32.361Z,99315.34
2023-03-03T09:22:19.769Z,99344.88
2023-03-03T09:24:48.971Z,99338.22
2023-03-03T09:27:31.803Z,99334.81
2023-03-03T09:30:16.728Z,99331.25
2023-03-03T09:32:43.699Z,99334.53
2023-03-03T09:35:36.719Z,99336.88
2023-03-03T09:38:32.291Z,99336.09
2023-03-03T09:41:34.510Z,99337.84
2023-03-03T09:44:29.516Z,99338.69
2023-03-03T09:47:27.736Z,99341.91
2023-03-03T09:50:24.018Z,99331.53
2023-03-03T09:53:09.526Z,99326.31
2023-03-03T09:56:03.502Z,99334.09
2023-03-03T09:59:25.182Z,99325.41
2023-03-03T10:02:19.454Z,99309.94
2023-03-03T10:05:14.518Z,99330.38
2023-03-03T10:08:09.821Z,99331.16
2023-03-03T10:10:53.854Z,99331.06
2023-03-03T10:13:31.388Z,99330.91
2023-03-03T10:16:39.340Z,99307.13
2023-03-03T10:19:24.769Z,99312.94
2023-03-03T10:22:01.002Z,99324.69
2023-03-03T10:24:42.126Z,99310.22
2023-03-03T10:28:18.836Z,99330.56
2023-03-03T10:31:07.979Z,99325.16
2023-03-03T10:33:39.221Z,99326.69
2023-03-03T10:36:42.180Z,99318.03
2023-03-03T10:39:24.336Z,99323.22
2023-03-03T10:42:21.069Z,99289.25
2023-03-03T10:45:24.401Z,99316.84
2023-03-03T10:49:05.714Z,99316.78
2023-03-03T10:51:44.399Z,99291.38
2023-03-03T10:54:31.604Z,99294.78
2023-03-03T10:57:03.156Z,99303.19
2023-03-03T11:00:46.791Z,99313.72
2023-03-03T11:03:38.043Z,99306.66
2023-03-03T11:06:38.321Z,99309.00
2023-03-03T11:09:37.772Z,99286.06
2023-03-03T11:12:22.803Z,99309.72
2023-03-03T11:15:33.101Z,99302.69
2023-03-03T11:18:29.055Z,99301.09
2023-03-03T11:21:23.401Z,99296.75
2023-03-03T11:24:16.066Z,99315.59
2023-03-03T11:26:48.652Z,99317.88
2023-03-03T11:29:46.511Z,99290.28
2023-03-03T11:32:50.893Z,99313.66
2023-03-03T11:35:44.638Z,99317.66
2023-03-03T11:38:34.198Z,99311.91
2023-03-03T11:41:32.725Z,99320.94
2023-03-03T11:44:29.675Z,99322.06
2023-03-03T11:47:26.890Z,99298.25
2023-03-03T11:50:03.643Z,99297.31
2023-03-03T11:52:42.145Z,99306.66
2023-03-03T11:55:20.055Z,99299.16
2023-03-03T11:57:57.097Z,99281.91
2023-03-03T12:00:52.545Z,99288.63
2023-03-03T12:03:25.997Z,99283.38
2023-03-03T12:06:27.959Z,99275.56
2023-03-03T12:09:36.739Z,99279.16
2023-03-03T12:12:14.530Z,99266.16
2023-03-03T12:15:17.325Z,99266.47
2023-03-03T12:18:11.806Z,99276.34
2023-03-03T12:21:24.526Z,99252.22
2023-03-03T12:24:09.505Z,99267.47
2023-03-03T12:27:14.916Z,99264.28
2023-03-03T12:30:27.169Z,99266.63
2023-03-03T12:33:32.756Z,99262.78
2023-03-03T12:36:29.717Z,99264.97
2023-03-03T12:39:56.917Z,99263.44
2023-03-03T12:43:01.229Z,99267.06
2023-03-03T12:45:46.656Z,99253.13
2023-03-03T12:48:24.629Z,99246.91
2023-03-03T12:51:41.937Z,99250.50
2023-03-03T12:54:26.730Z,99249.50
2023-03-03T12:56:58.927Z,99239.66
2023-03-03T12:59:51.802Z,99247.84
2023-03-03T13:03:04.320Z,99251.13
2023-03-03T13:05:40.252Z,99242.13
2023-03-03T13:08:51.499Z,99247.44
2023-03-03T13:11:40.889Z,99249.94
2023-03-03T13:14:39.810Z,99245.44
2023-03-03T13:17:19.274Z,99247.84
2023-03-03T13:19:51.540Z,99250.94
2023-03-03T13:22:42.078Z,99233.47
2023-03-03T13:25:36.004Z,99245.34
2023-03-03T13:28:23.919Z,99237.72
2023-03-03T13:31:06.911Z,99220.09
2023-03-03T13:33:37.535Z,99236.16
2023-03-03T13:36:09.754Z,99234.25
2023-03-03T13:39:00.885Z,99230.88
2023-03-03T13:41:52.097Z,99229.78
2023-03-03T13:44:26.011Z,99235.09
2023-03-03T13:47:25.699Z,99228.41
2023-03-03T13:50:12.500Z,99226.75
2023-03-03T13:53:07.689Z,99222.09
2023-03-03T13:55:44.216Z,99232.31
2023-03-03T13:58:25.644Z,99215.63
2023-03-03T14:01:01.986Z,99221.19
2023-03-03T14:04:00.211Z,99224.09
2023-03-03T14:06:29.266Z,99210.41
2023-03-03T14:09:16.479Z,99203.84
2023-03-03T14:12:18.289Z,99217.34
2023-03-03T14:15:20.755Z,99208.84
2023-03-03T14:18:22.625Z,99200.59
2023-03-03T14:21:05.164Z,99206.13
2023-03-03T14:23:59.488Z,99207.41
2023-03-03T14:26:26.422Z,99178.78
2023-03-03T14:29:19.715Z,99181.91
2023-03-03T14:31:46.571Z,99198.25
2023-03-03T14:34:40.113Z,99183.34
2023-03-03T14:37:43.505Z,99194.19
2023-03-03T14:40:19.360Z,99202.75
2023-03-03T14:42:51.845Z,99200.19
2023-03-03T14:45:36.095Z,99208.13
2023-03-03T14:48:17.935Z,99190.56
2023-03-03T14:50:53.187Z,99195.34
2023-03-03T14:53:19.894Z,99198.78
2023-03-03T14:55:50.486Z,99185.56
2023-03-03T14:58:41.732Z,99200.13
2023-03-03T15:01:14.233Z,99185.66
2023-03-03T15:04:04.124Z,99203.97
2023-03-03T15:06:36.911Z,99194.06
2023-03-03T15:09:25.685Z,99193.81
2023-03-03T15:11:58.954Z,99190.06
2023-03-03T15:14:39.094Z,99188.88
2023-03-03T15:17:29.821Z,99181.81
2023-03-03T15:20:36.910Z,99187.78
2023-03-03T15:23:20.424Z,99182.81
2023-03-03T15:26:06.084Z,99182.84
2023-03-03T15:29:09.618Z,99190.34
2023-03-03T15:31:45.592Z,99182.22
2023-03-03T15:34:24.974Z,99188.09
2023-03-03T15:37:16.387Z,99188.63
2023-03-03T15:40:20.620Z,99183.66
2023-03-03T15:43:19.622Z,99166.31
2023-03-03T15:46:33.492Z,99185.75
2023-03-03T15:49:47.129Z,99172.53
2023-03-03T15:52:47.036Z,99160.44
2023-03-03T15:55:58.880Z,99181.28
2023-03-03T15:58:33.351Z,99187.59
2023-03-03T16:01:34.318Z,99151.44
2023-03-03T16:04:17.008Z,99174.00
2023-03-03T16:07:04.251Z,99190.28
2023-03-03T16:10:12.003Z,99187.06
2023-03-03T16:13:18.236Z,99195.34
2023-03-03T16:16:12.382Z,99198.91
2023-03-03T16:18:45.896Z,99199.56
2023-03-03T16:21:50.089Z,99193.50
2023-03-03T16:24:42.972Z,99200.25
2023-03-03T16:27:33.054Z,99202.31
2023-03-03T16:30:26.625Z,99207.47
2023-03-03T16:33:43.916Z,99203.44
2023-03-03T16:36:16.750Z,99215.94
2023-03-03T16:39:03.498Z,99207.28
2023-03-03T16:41:53.181Z,99218.28
2023-03-03T16:44:49.850Z,99215.09
2023-03-03T16:47:38.905Z,99219.31
2023-03-03T16:50:19.497Z,99225.44
2023-03-03T16:53:04.748Z,99234.94
2023-03-03T16:55:42.133Z,99228.25
2023-03-03T16:58:43.978Z,99232.66
2023-03-03T17:01:35.332Z,99240.34
2023-03-03T17:04:13.785Z,99242.03
2023-03-03T17:06:53.716Z,99241.44
2023-03-03T17:09:47.618Z,99213.69
2023-03-03T17:13:30.537Z,99255.25
2023-03-03T17:16:05.152Z,99257.16
2023-03-03T17:19:08.367Z,99263.19
2023-03-03T17:21:57.168Z,99267.63
2023-03-03T17:24:48.893Z,99269.91
2023-03-03T17:27:43.773Z,99272.75
2023-03-03T17:30:24.290Z,99276.31
2023-03-03T17:33:34.395Z,99275.19
2023-03-03T17:36:18.253Z,99276.50
2023-03-03T17:39:42.265Z,99281.41
2023-03-03T17:42:56.270Z,99286.44
2023-03-03T17:45:25.843Z,99293.47
2023-03-03T17:48:36.895Z,99293.69
2023-03-03T17:51:52.731Z,99295.72
2023-03-03T17:54:26.358Z,99300.78
2023-03-03T17:57:10.895Z,99305.13
2023-03-03T18:00:16.517Z,99306.00
2023-03-03T18:03:37.219Z,99310.50
2023-03-03T18:06:44.592Z,99314.88
2023-03-03T18:09:23.920Z,99315.84
2023-03-03T18:12:28.587Z,99311.84
2023-03-03T18:15:26.225Z,99323.41
2023-03-03T18:18:06.713Z,99317.94
2023-03-03T18:21:06.012Z,99317.38
2023-03-03T18:23:42.404Z,99310.66
2023-03-03T18:26:35.002Z,99331.16
2023-03-03T18:29:17.162Z,99324.56
2023-03-03T18:31:49.120Z,99339.31
2023-03-03T18:34:21.889Z,99338.50
2023-03-03T18:36:58.484Z,99328.25
2023-03-03T18:39:43.239Z,99342.88
2023-03-03T18:42:16.048Z,99335.19
2023-03-03T18:44:47.885Z,99337.81
2023-03-03T18:47:17.701Z,99346.78
2023-03-03T18:49:55.683Z,99331.34
2023-03-03T18:52:29.457Z,99351.06
2023-03-03T18:55:21.013Z,99362.53
2023-03-03T18:58:29.862Z,99366.13
2023-03-03T19:01:31.855Z,99367.75
2023-03-03T19:04:18.528Z,99364.34
2023-03-03T19:06:48.312Z,99366.88
2023-03-03T19:10:01.355Z,99329.06
2023-03-03T19:12:53.203Z,99376.34
2023-03-03T19:15:33.893Z,99378.22
2023-03-03T19:18:02.412Z,99377.53
2023-03-03T19:20:45.702Z,99371.53
2023-03-03T19:23:17.810Z,99376.69
2023-03-03T19:25:44.726Z,99380.25
2023-03-03T19:28:50.213Z,99365.19
2023-03-03T19:31:35.004Z,99375.25
2023-03-03T19:34:25.460Z,99384.81
2023-03-03T19:37:31.197Z,99385.81
2023-03-03T19:40:22.214Z,99391.13
2023-03-03T19:42:56.465Z,99386.94
2023-03-03T19:45:54.079Z,99393.88
2023-03-03T19:48:55.419Z,99387.28
2023-03-03T19:51:43.022Z,99397.69
2023-03-03T19:54:46.321Z,99375.09
2023-03-03T19:57:59.169Z,99398.91
2023-03-03T20:00:39.778Z,99398.16
2023-03-03T20:03:48.115Z,99398.31
2023-03-03T20:06:49.038Z,99397.53
2023-03-03T20:09:37.347Z,99404.63
2023-03-03T20:12:28.068Z,99409.16
2023-03-03T20:15:12.382Z,99390.63
2023-03-03T20:18:14.471Z,99381.28
2023-03-03T20:20:55.309Z,99414.41
2023-03-03T20:23:36.518Z,99410.34
2023-03-03T20:26:23.488Z,99393.66
2023-03-03T20:29:40.355Z,99418.34
2023-03-03T20:32:42.822Z,99422.69
2023-03-03T20:36:17.408Z,99423.75
2023-03-03T20:39:15.422Z,99424.81
2023-03-03T20:42:13.620Z,99429.28
2023-03-03T20:45:07.455Z,99432.03
2023-03-03T20:48:12.172Z,99435.75
2023-03-03T20:51:14.111Z,99433.31
2023-03-03T20:54:15.649Z,99435.09
2023-03-03T20:57:35.486Z,99444.75
2023-03-03T21:00:13.572Z,99440.78
2023-03-03T21:03:06.359Z,99444.19
2023-03-03T21:05:33.216Z,99448.66
2023-03-03T21:08:03.832Z,99453.06
2023-03-03T21:10:37.216Z,99450.53
2023-03-03T21:13:36.936Z,99450.69
2023-03-03T21:16:26.821Z,99458.41
2023-03-03T21:19:01.128Z,99438.19
2023-03-03T21:21:35.354Z,99450.16
2023-03-03T21:24:02.246Z,99414.75
2023-03-03T21:26:58.326Z,99452.06
2023-03-03T21:29:33.425Z,99454.72
2023-03-03T21:32:09.407Z,99442.19
2023-03-03T21:34:42.129Z,99466.84
2023-03-03T21:37:12.413Z,99458.38
2023-03-03T21:39:43.625Z,99457.50
2023-03-03T21:42:12.164Z,99456.03
2023-03-03T21:44:51.134Z,99463.78
2023-03-03T21:47:20.983Z,99470.59
2023-03-03T21:49:51.024Z,99457.16
2023-03-03T21:52:20.454Z,99458.03
2023-03-03T21:54:49.865Z,99461.44
2023-03-03T21:57:17.365Z,99433.47
2023-03-03T21:59:44.247Z,99461.44
2023-03-03T22:02:11.314Z,99459.75
2023-03-03T22:04:38.880Z,99450.53
2023-03-03T22:07:06.111Z,99452.38
2023-03-03T22:09:32.985Z,99444.75
2023-03-03T22:11:59.844Z,99463.50
2023-03-03T22:14:26.829Z,99461.88
2023-03-03T22:16:53.689Z,99471.28
2023-03-03T22:19:20.498Z,99446.97
2023-03-03T22:21:47.685Z,99425.75
2023-03-03T22:24:14.524Z,99474.13
2023-03-03T22:26:41.343Z,99474.13
2023-03-03T22:29:08.762Z,99474.28
2023-03-03T22:31:35.665Z,99453.94
2023-03-03T22:34:03.025Z,99467.53
2023-03-03T22:36:29.838Z,99467.59
2023-03-03T22:38:56.644Z,99472.75
2023-03-03T22:41:23.534Z,99462.66
2023-03-03T22:43:50.615Z,99466.94
2023-03-03T22:46:17.488Z,99470.44
2023-03-03T22:48:44.317Z,99472.16
2023-03-03T22:51:11.166Z,99470.44
2023-03-03T22:53:37.949Z,99468.16
2023-03-03T22:56:05.181Z,99476.63
2023-03-03T22:58:31.966Z,99481.75
2023-03-03T23:00:58.803Z,99485.19
2023-03-03T23:03:25.736Z,99481.88
2023-03-03T23:05:52.756Z,99453.25
2023-03-03T23:08:21.072Z,99492.16
2023-03-03T23:10:48.330Z,99493.91
2023-03-03T23:13:15.724Z,99478.66
2023-03-03T23:15:42.981Z,99488.06
2023-03-03T23:18:10.197Z,99488.94
2023-03-03T23:20:37.030Z,99494.94
2023-03-03T23:23:04.220Z,99489.00
2023-03-03T23:25:31.194Z,99491.53
2023-03-03T23:27:58.157Z,99489.00
2023-03-03T23:30:25.369Z,99467.94
2023-03-03T23:32:52.483Z,99473.88
2023-03-03T23:35:20.129Z,99497.66
2023-03-03T23:37:47.023Z,99501.97
2023-03-03T23:40:17.056Z,99502.88
2023-03-03T23:42:44.273Z,99499.50
2023-03-03T23:45:12.851Z,99497.16
2023-03-03T23:47:40.330Z,99508.25
2023-03-03T23:50:08.531Z,99501.41
2023-03-03T23:52:35.433Z,99487.06
2023-03-03T23:55:02.830Z,99499.72
2023-03-03T23:57:29.717Z,99508.31
2023-03-03T23:59:56.591Z,99499.00
